Карточка аэропорта URSS

Внимание!
Информация на этой странице в стадии наполнения.
Если вы не увидели какой-то информации, или заметили неточность - пожалуйста сообщите нам!
Спасибо!
Команда RU-STAFF
Название аэропортаСочи
Название аэропорта (англ.)Sochi
Превышение89 ft. (27.1 m.)
Координаты43°26.634', 39°56.55'
Высота перехода13000 ft
Эшелон переходаFL140 (QNH >= 1013); FL150 (QNH 977-1012); FL160 (QNH < 977)
Коды ответчика1060-1077
Зона ОрВДРостов-на-Дону РПИ (URRV)
Данные METARURSS 290230Z 35003MPS 310V030 9999 -SHRA BKN050CB OVC100 19/16 Q1009 R02/010070 R06/010070 NOSIG RMK R06/35005MPS QFE755
Проноз погоды (TAF)URSS 290155Z 2903/3003 05003G08MPS 9999 SCT016 BKN030CB BKN100 TEMPO 2903/2907 VRB06G13MPS 1500 TSRA BKN005 BKN030CB OVC100 BECMG 2907/2908 17005G10MPS BECMG 2910/2911 23003G08MPS SCT030 BKN100 BECMG 2912/2913 27005G10MPS BECMG 2916/2917 05003G08MPS SCT030CB BKN100 TEMPO 2921/3003 VRB06G11MPS -TSRA SCT016 BKN030CB BKN100
NOTAMshow/hide NOTAM
AWOS   TABLE

Информация о ВПП

ВПП Длина ВПП (м.) Покрытие Курс ВПП Частота ILS
242890Цементобетон238 
202500Цементобетон202 
062890Цементобетон58111.1
022500Цементобетон22110.5

Диспетчерские позиции

Позывной Наименование органа УВД Частота
URSS_APPСочи-Подход124.600
URSS_DELСочи-Деливери132.700
URSS_FM1119.000
URSS_GNDСочи-Руление119.000
URSS_R_APPСочи-Круг119.700
URSS_TWRСочи-Старт121.200



Спутниковое изображение